Calistoga, CA (94515)

11:20 AM PST on December 06, 2016 (GMT -0800)
Calistoga | | Change Station

Elev 367 ft 38.59 °N, 122.58 °W | Updated 2 seconds ago

Overcast
Overcast
52.9 °F
Feels Like 52.9 °F
N
2.9
Wind Variable Wind from NW
Gusts 9.0 mph

Today
High -- | Low -- °F
--% Chance of Precip.
Yesterday
High -- | Low -- °F
Precip. -- in
Pressure 30.09 in
Visibility 10.0 miles
Clouds Mostly Cloudy 4700 ft
Overcast 5500 ft
Dew Point 40 °F
Humidity 62%
Rainfall 0.00 in
Snow Depth Not available.
7:14 AM 4:48 PM
Waxing Crescent, 44% visible
METAR KSTS 061853Z 25004KT 10SM BKN047 OVC055 09/04 A3010 RMK AO2 SLP189 T00890039
Pressure 30.09 in
Visibility 10.0 miles
Clouds Mostly Cloudy 4700 ft
Overcast 5500 ft
Dew Point 40 °F
Humidity 62%
Rainfall 0.00 in
Snow Depth Not available.
7:14 AM 4:48 PM
Waxing Crescent, 44% visible
METAR KSTS 061853Z 25004KT 10SM BKN047 OVC055 09/04 A3010 RMK AO2 SLP189 T00890039

10-Day Weather Forecast

Almanac

Astronomy

Dec. 06, 2016 Rise Set
Actual Time
Civil Twilight
Nautical Twilight
Astronomical Twilight
Moon
Length of Visible Light
Length of Day
Tomorrow will be .
, % of the Moon is Illuminated

Today's Extremes

State Highs State Lows

Community

WunderPhotos

Upload Photos

1,956,015 photos uploaded!

WunderBlog® & News

Nearby

Air Quality

  Air Quality AQ Index Pollutant
Not available.

Snow Depth

Station Depth Elevation

Earthquake Activity

City Distance Mag. Time & Date
Minimum magnitude displayed is 2.5.

Coastal Water Temperatures

Place Temperature

Stations

Nearby Weather Stations

Station Location Temp. Windchill Dew Point Humidity Wind Precip. Elev Updated Type
                   

Watches & Warnings

There are currently no watches in effect.